sensor_id;sensor_type;location;lat;lon;timestamp;temperature;humidity
8862;DHT22;4799;50.996;4.754;2023-06-22T00:01:29;21.50;99.90
8862;DHT22;4799;50.996;4.754;2023-06-22T00:03:55;21.40;99.90
8862;DHT22;4799;50.996;4.754;2023-06-22T00:06:20;21.40;99.90
8862;DHT22;4799;50.996;4.754;2023-06-22T00:08:46;21.40;99.90
8862;DHT22;4799;50.996;4.754;2023-06-22T00:11:12;21.40;99.90
8862;DHT22;4799;50.996;4.754;2023-06-22T00:13:38;21.30;99.90
8862;DHT22;4799;50.996;4.754;2023-06-22T00:16:04;21.40;99.90
8862;DHT22;4799;50.996;4.754;2023-06-22T00:18:30;21.30;99.90
8862;DHT22;4799;50.996;4.754;2023-06-22T00:20:57;21.30;99.90
8862;DHT22;4799;50.996;4.754;2023-06-22T00:23:23;21.30;99.90
8862;DHT22;4799;50.996;4.754;2023-06-22T00:25:49;21.30;99.90
8862;DHT22;4799;50.996;4.754;2023-06-22T00:28:15;21.20;99.90
8862;DHT22;4799;50.996;4.754;2023-06-22T00:30:41;21.20;99.90
8862;DHT22;4799;50.996;4.754;2023-06-22T00:33:07;21.10;99.90
8862;DHT22;4799;50.996;4.754;2023-06-22T00:35:33;21.00;99.90
8862;DHT22;4799;50.996;4.754;2023-06-22T00:38:00;20.90;99.90
8862;DHT22;4799;50.996;4.754;2023-06-22T00:40:30;20.90;99.90
8862;DHT22;4799;50.996;4.754;2023-06-22T00:42:57;20.80;99.90
8862;DHT22;4799;50.996;4.754;2023-06-22T00:45:23;20.80;99.90
8862;DHT22;4799;50.996;4.754;2023-06-22T00:47:53;20.80;99.90
8862;DHT22;4799;50.996;4.754;2023-06-22T00:50:21;20.80;99.90
8862;DHT22;4799;50.996;4.754;2023-06-22T00:52:53;20.90;99.90
8862;DHT22;4799;50.996;4.754;2023-06-22T00:55:20;20.90;99.90
8862;DHT22;4799;50.996;4.754;2023-06-22T00:57:46;20.90;99.90
8862;DHT22;4799;50.996;4.754;2023-06-22T01:00:16;20.90;99.90
8862;DHT22;4799;50.996;4.754;2023-06-22T01:02:45;20.90;99.90
8862;DHT22;4799;50.996;4.754;2023-06-22T01:05:15;20.90;99.90
8862;DHT22;4799;50.996;4.754;2023-06-22T01:13:26;20.90;99.90
8862;DHT22;4799;50.996;4.754;2023-06-22T01:15:57;20.90;99.90
8862;DHT22;4799;50.996;4.754;2023-06-22T01:18:27;20.90;99.90
8862;DHT22;4799;50.996;4.754;2023-06-22T01:20:55;20.90;99.90
8862;DHT22;4799;50.996;4.754;2023-06-22T01:31:12;21.00;99.90
8862;DHT22;4799;50.996;4.754;2023-06-22T01:33:41;21.00;99.90
8862;DHT22;4799;50.996;4.754;2023-06-22T01:36:08;20.90;99.90
8862;DHT22;4799;50.996;4.754;2023-06-22T01:38:36;20.90;99.90
8862;DHT22;4799;50.996;4.754;2023-06-22T01:41:03;20.80;99.90
8862;DHT22;4799;50.996;4.754;2023-06-22T01:43:29;20.80;99.90
8862;DHT22;4799;50.996;4.754;2023-06-22T01:45:56;20.70;99.90
8862;DHT22;4799;50.996;4.754;2023-06-22T01:48:23;20.60;99.90
8862;DHT22;4799;50.996;4.754;2023-06-22T01:50:49;20.50;99.90
8862;DHT22;4799;50.996;4.754;2023-06-22T01:53:15;20.40;99.90
8862;DHT22;4799;50.996;4.754;2023-06-22T01:55:40;20.40;99.90
8862;DHT22;4799;50.996;4.754;2023-06-22T01:58:06;20.30;99.90
8862;DHT22;4799;50.996;4.754;2023-06-22T02:00:36;20.20;99.90
8862;DHT22;4799;50.996;4.754;2023-06-22T02:03:13;20.10;99.90
8862;DHT22;4799;50.996;4.754;2023-06-22T02:05:49;20.10;99.90
8862;DHT22;4799;50.996;4.754;2023-06-22T02:08:23;19.90;99.90
8862;DHT22;4799;50.996;4.754;2023-06-22T02:10:52;19.90;99.90
8862;DHT22;4799;50.996;4.754;2023-06-22T02:13:18;19.80;99.90
8862;DHT22;4799;50.996;4.754;2023-06-22T02:15:45;19.80;99.90
8862;DHT22;4799;50.996;4.754;2023-06-22T02:18:12;19.80;99.90
8862;DHT22;4799;50.996;4.754;2023-06-22T02:20:38;19.80;99.90
8862;DHT22;4799;50.996;4.754;2023-06-22T02:23:06;19.70;99.90
8862;DHT22;4799;50.996;4.754;2023-06-22T02:25:32;19.70;99.90
8862;DHT22;4799;50.996;4.754;2023-06-22T02:27:58;19.60;99.90
8862;DHT22;4799;50.996;4.754;2023-06-22T02:30:24;19.60;99.90
8862;DHT22;4799;50.996;4.754;2023-06-22T02:32:50;19.60;99.90
8862;DHT22;4799;50.996;4.754;2023-06-22T02:35:29;19.50;99.90
8862;DHT22;4799;50.996;4.754;2023-06-22T02:37:58;19.50;99.90
8862;DHT22;4799;50.996;4.754;2023-06-22T02:40:25;19.40;99.90
8862;DHT22;4799;50.996;4.754;2023-06-22T02:42:51;19.40;99.90
8862;DHT22;4799;50.996;4.754;2023-06-22T02:45:16;19.30;99.90
8862;DHT22;4799;50.996;4.754;2023-06-22T02:47:42;19.30;99.90
8862;DHT22;4799;50.996;4.754;2023-06-22T02:50:08;19.20;99.90
8862;DHT22;4799;50.996;4.754;2023-06-22T02:52:34;19.20;99.90
8862;DHT22;4799;50.996;4.754;2023-06-22T02:54:59;19.10;99.90
8862;DHT22;4799;50.996;4.754;2023-06-22T02:57:25;19.10;99.90
8862;DHT22;4799;50.996;4.754;2023-06-22T02:59:51;19.00;99.90
8862;DHT22;4799;50.996;4.754;2023-06-22T03:02:17;19.00;99.90
8862;DHT22;4799;50.996;4.754;2023-06-22T03:04:44;18.90;99.90
8862;DHT22;4799;50.996;4.754;2023-06-22T03:07:09;18.90;99.90
8862;DHT22;4799;50.996;4.754;2023-06-22T03:09:35;18.90;99.90
8862;DHT22;4799;50.996;4.754;2023-06-22T03:12:01;18.90;99.90
8862;DHT22;4799;50.996;4.754;2023-06-22T03:14:27;18.80;99.90
8862;DHT22;4799;50.996;4.754;2023-06-22T03:16:53;18.80;99.90
8862;DHT22;4799;50.996;4.754;2023-06-22T03:19:19;18.70;99.90
8862;DHT22;4799;50.996;4.754;2023-06-22T03:21:46;18.80;99.90
8862;DHT22;4799;50.996;4.754;2023-06-22T03:24:12;18.70;99.90
8862;DHT22;4799;50.996;4.754;2023-06-22T03:26:38;18.80;99.90
8862;DHT22;4799;50.996;4.754;2023-06-22T03:29:03;18.80;99.90
8862;DHT22;4799;50.996;4.754;2023-06-22T03:31:29;18.80;99.90
8862;DHT22;4799;50.996;4.754;2023-06-22T03:33:55;18.80;99.90
8862;DHT22;4799;50.996;4.754;2023-06-22T03:36:21;18.90;99.90
8862;DHT22;4799;50.996;4.754;2023-06-22T03:38:49;19.00;99.90
8862;DHT22;4799;50.996;4.754;2023-06-22T03:41:15;19.10;99.90
8862;DHT22;4799;50.996;4.754;2023-06-22T03:43:41;19.20;99.90
8862;DHT22;4799;50.996;4.754;2023-06-22T03:46:07;19.20;99.90
8862;DHT22;4799;50.996;4.754;2023-06-22T03:48:33;19.20;99.90
8862;DHT22;4799;50.996;4.754;2023-06-22T03:50:59;19.30;99.90
8862;DHT22;4799;50.996;4.754;2023-06-22T03:53:25;19.30;99.90
8862;DHT22;4799;50.996;4.754;2023-06-22T03:55:52;19.30;99.90
8862;DHT22;4799;50.996;4.754;2023-06-22T03:58:19;19.30;99.90
8862;DHT22;4799;50.996;4.754;2023-06-22T04:00:51;19.30;99.90
8862;DHT22;4799;50.996;4.754;2023-06-22T04:03:18;19.30;99.90
8862;DHT22;4799;50.996;4.754;2023-06-22T04:05:47;19.40;99.90
8862;DHT22;4799;50.996;4.754;2023-06-22T04:08:14;19.40;99.90
8862;DHT22;4799;50.996;4.754;2023-06-22T04:10:40;19.40;99.90
8862;DHT22;4799;50.996;4.754;2023-06-22T04:13:06;19.40;99.90
8862;DHT22;4799;50.996;4.754;2023-06-22T04:15:31;19.40;99.90
8862;DHT22;4799;50.996;4.754;2023-06-22T04:17:57;19.50;99.90
8862;DHT22;4799;50.996;4.754;2023-06-22T04:20:23;19.50;99.90
8862;DHT22;4799;50.996;4.754;2023-06-22T04:22:53;19.50;99.90
8862;DHT22;4799;50.996;4.754;2023-06-22T04:25:19;19.50;99.90
8862;DHT22;4799;50.996;4.754;2023-06-22T04:27:45;19.60;99.90
8862;DHT22;4799;50.996;4.754;2023-06-22T04:30:11;19.60;99.90
8862;DHT22;4799;50.996;4.754;2023-06-22T04:32:41;19.60;99.90
8862;DHT22;4799;50.996;4.754;2023-06-22T04:35:07;19.60;99.90
8862;DHT22;4799;50.996;4.754;2023-06-22T04:37:33;19.70;99.90
8862;DHT22;4799;50.996;4.754;2023-06-22T04:39:59;19.60;99.90
8862;DHT22;4799;50.996;4.754;2023-06-22T04:42:28;19.70;99.90
8862;DHT22;4799;50.996;4.754;2023-06-22T04:44:54;19.70;99.90
8862;DHT22;4799;50.996;4.754;2023-06-22T04:47:20;19.70;99.90
8862;DHT22;4799;50.996;4.754;2023-06-22T04:49:46;19.70;99.90
8862;DHT22;4799;50.996;4.754;2023-06-22T04:52:12;19.80;99.90
8862;DHT22;4799;50.996;4.754;2023-06-22T04:54:40;19.80;99.90
8862;DHT22;4799;50.996;4.754;2023-06-22T04:57:14;19.80;99.90
8862;DHT22;4799;50.996;4.754;2023-06-22T04:59:40;19.90;99.90
8862;DHT22;4799;50.996;4.754;2023-06-22T05:02:07;19.90;99.90
8862;DHT22;4799;50.996;4.754;2023-06-22T05:04:34;20.00;99.90
8862;DHT22;4799;50.996;4.754;2023-06-22T05:07:01;20.10;99.90
8862;DHT22;4799;50.996;4.754;2023-06-22T05:09:28;20.20;99.90
8862;DHT22;4799;50.996;4.754;2023-06-22T05:11:54;20.20;99.90
8862;DHT22;4799;50.996;4.754;2023-06-22T05:14:22;20.30;99.90
8862;DHT22;4799;50.996;4.754;2023-06-22T05:16:48;20.40;99.90
8862;DHT22;4799;50.996;4.754;2023-06-22T05:19:14;20.60;99.90
8862;DHT22;4799;50.996;4.754;2023-06-22T05:21:40;20.60;99.90
8862;DHT22;4799;50.996;4.754;2023-06-22T05:24:05;20.50;99.90
8862;DHT22;4799;50.996;4.754;2023-06-22T05:26:33;20.50;99.90
8862;DHT22;4799;50.996;4.754;2023-06-22T05:29:00;20.50;99.90
8862;DHT22;4799;50.996;4.754;2023-06-22T05:31:27;20.50;99.90
8862;DHT22;4799;50.996;4.754;2023-06-22T05:33:54;20.50;99.90
8862;DHT22;4799;50.996;4.754;2023-06-22T05:36:20;20.40;99.90
8862;DHT22;4799;50.996;4.754;2023-06-22T05:38:47;20.40;99.90
8862;DHT22;4799;50.996;4.754;2023-06-22T05:41:13;20.40;99.90
8862;DHT22;4799;50.996;4.754;2023-06-22T05:43:39;20.40;99.90
8862;DHT22;4799;50.996;4.754;2023-06-22T05:46:05;20.40;99.90
8862;DHT22;4799;50.996;4.754;2023-06-22T05:48:31;20.40;99.90
8862;DHT22;4799;50.996;4.754;2023-06-22T05:50:58;20.40;99.90
8862;DHT22;4799;50.996;4.754;2023-06-22T05:53:24;20.40;99.90
8862;DHT22;4799;50.996;4.754;2023-06-22T05:55:50;20.40;99.90
8862;DHT22;4799;50.996;4.754;2023-06-22T05:58:15;20.40;99.90
8862;DHT22;4799;50.996;4.754;2023-06-22T06:00:41;20.40;99.90
8862;DHT22;4799;50.996;4.754;2023-06-22T06:03:09;20.50;99.90
8862;DHT22;4799;50.996;4.754;2023-06-22T06:05:36;20.50;99.90
8862;DHT22;4799;50.996;4.754;2023-06-22T06:08:03;20.60;99.90
8862;DHT22;4799;50.996;4.754;2023-06-22T06:10:33;20.60;99.90
8862;DHT22;4799;50.996;4.754;2023-06-22T06:12:59;20.80;99.90
8862;DHT22;4799;50.996;4.754;2023-06-22T06:15:27;20.90;99.90
8862;DHT22;4799;50.996;4.754;2023-06-22T06:17:53;21.00;99.90
8862;DHT22;4799;50.996;4.754;2023-06-22T06:20:21;21.00;99.90
8862;DHT22;4799;50.996;4.754;2023-06-22T06:22:47;21.10;99.90
8862;DHT22;4799;50.996;4.754;2023-06-22T06:25:14;21.20;99.90
8862;DHT22;4799;50.996;4.754;2023-06-22T06:27:44;21.30;99.90
8862;DHT22;4799;50.996;4.754;2023-06-22T06:30:11;21.30;99.90
8862;DHT22;4799;50.996;4.754;2023-06-22T06:32:37;21.40;99.90
8862;DHT22;4799;50.996;4.754;2023-06-22T06:35:05;21.40;99.90
8862;DHT22;4799;50.996;4.754;2023-06-22T06:37:32;21.50;99.90
8862;DHT22;4799;50.996;4.754;2023-06-22T06:39:58;21.50;99.90
8862;DHT22;4799;50.996;4.754;2023-06-22T06:42:24;21.50;99.90
8862;DHT22;4799;50.996;4.754;2023-06-22T06:44:50;21.60;99.90
8862;DHT22;4799;50.996;4.754;2023-06-22T06:47:16;21.60;99.90
8862;DHT22;4799;50.996;4.754;2023-06-22T06:49:42;21.70;99.90
8862;DHT22;4799;50.996;4.754;2023-06-22T06:52:08;21.70;99.90
8862;DHT22;4799;50.996;4.754;2023-06-22T06:54:34;21.70;99.90
8862;DHT22;4799;50.996;4.754;2023-06-22T06:56:59;21.70;99.90
8862;DHT22;4799;50.996;4.754;2023-06-22T06:59:25;21.70;99.90
8862;DHT22;4799;50.996;4.754;2023-06-22T07:01:51;21.80;99.90
8862;DHT22;4799;50.996;4.754;2023-06-22T07:04:16;21.80;99.90
8862;DHT22;4799;50.996;4.754;2023-06-22T07:06:42;21.80;99.90
8862;DHT22;4799;50.996;4.754;2023-06-22T07:09:08;21.80;99.90
8862;DHT22;4799;50.996;4.754;2023-06-22T07:11:34;21.80;99.90
8862;DHT22;4799;50.996;4.754;2023-06-22T07:14:01;21.80;99.90
8862;DHT22;4799;50.996;4.754;2023-06-22T07:16:27;21.90;99.90
8862;DHT22;4799;50.996;4.754;2023-06-22T07:18:54;21.90;99.90
8862;DHT22;4799;50.996;4.754;2023-06-22T07:21:19;22.00;99.90
8862;DHT22;4799;50.996;4.754;2023-06-22T07:23:45;21.90;99.90
8862;DHT22;4799;50.996;4.754;2023-06-22T07:26:11;22.00;99.90
8862;DHT22;4799;50.996;4.754;2023-06-22T07:28:38;22.00;99.90
8862;DHT22;4799;50.996;4.754;2023-06-22T07:31:06;22.00;99.90
8862;DHT22;4799;50.996;4.754;2023-06-22T07:33:32;21.90;99.90
8862;DHT22;4799;50.996;4.754;2023-06-22T07:35:57;21.90;99.90
8862;DHT22;4799;50.996;4.754;2023-06-22T07:38:23;21.90;99.90
8862;DHT22;4799;50.996;4.754;2023-06-22T07:40:49;21.90;99.90
8862;DHT22;4799;50.996;4.754;2023-06-22T07:43:16;21.90;99.90
8862;DHT22;4799;50.996;4.754;2023-06-22T07:51:39;22.20;99.90
8862;DHT22;4799;50.996;4.754;2023-06-22T07:54:04;22.20;99.90
8862;DHT22;4799;50.996;4.754;2023-06-22T07:56:30;22.30;99.90
8862;DHT22;4799;50.996;4.754;2023-06-22T07:58:56;22.30;99.90
8862;DHT22;4799;50.996;4.754;2023-06-22T08:01:23;22.30;99.90
8862;DHT22;4799;50.996;4.754;2023-06-22T08:03:49;22.30;99.90
8862;DHT22;4799;50.996;4.754;2023-06-22T08:06:15;22.30;99.90
8862;DHT22;4799;50.996;4.754;2023-06-22T08:08:41;22.30;99.90
8862;DHT22;4799;50.996;4.754;2023-06-22T08:11:08;22.30;99.90
8862;DHT22;4799;50.996;4.754;2023-06-22T08:13:34;22.30;99.90
8862;DHT22;4799;50.996;4.754;2023-06-22T08:16:00;22.30;99.90
8862;DHT22;4799;50.996;4.754;2023-06-22T08:18:25;22.20;99.90
8862;DHT22;4799;50.996;4.754;2023-06-22T08:20:51;22.20;99.90
8862;DHT22;4799;50.996;4.754;2023-06-22T08:23:17;22.10;99.90
8862;DHT22;4799;50.996;4.754;2023-06-22T08:25:43;22.10;99.90
8862;DHT22;4799;50.996;4.754;2023-06-22T08:28:08;22.10;99.90
8862;DHT22;4799;50.996;4.754;2023-06-22T08:30:34;22.10;99.90
8862;DHT22;4799;50.996;4.754;2023-06-22T08:33:00;22.00;99.90
8862;DHT22;4799;50.996;4.754;2023-06-22T08:35:26;22.00;99.90
8862;DHT22;4799;50.996;4.754;2023-06-22T08:37:51;21.90;99.90
8862;DHT22;4799;50.996;4.754;2023-06-22T08:40:20;21.90;99.90
8862;DHT22;4799;50.996;4.754;2023-06-22T08:42:47;21.80;99.90
8862;DHT22;4799;50.996;4.754;2023-06-22T08:45:15;21.80;99.90
8862;DHT22;4799;50.996;4.754;2023-06-22T08:47:41;21.70;99.90
8862;DHT22;4799;50.996;4.754;2023-06-22T08:50:11;21.70;99.90
8862;DHT22;4799;50.996;4.754;2023-06-22T08:52:37;21.70;99.90
8862;DHT22;4799;50.996;4.754;2023-06-22T08:55:04;21.70;99.90
8862;DHT22;4799;50.996;4.754;2023-06-22T08:57:30;21.70;99.90
8862;DHT22;4799;50.996;4.754;2023-06-22T08:59:58;21.80;99.90
8862;DHT22;4799;50.996;4.754;2023-06-22T09:02:27;21.80;99.90
8862;DHT22;4799;50.996;4.754;2023-06-22T09:04:59;21.90;99.90
8862;DHT22;4799;50.996;4.754;2023-06-22T09:07:25;22.00;99.90
8862;DHT22;4799;50.996;4.754;2023-06-22T09:09:51;22.00;99.90
8862;DHT22;4799;50.996;4.754;2023-06-22T09:12:18;22.00;99.90
8862;DHT22;4799;50.996;4.754;2023-06-22T09:14:46;22.00;99.90
8862;DHT22;4799;50.996;4.754;2023-06-22T09:17:13;21.90;99.90
8862;DHT22;4799;50.996;4.754;2023-06-22T09:19:39;21.90;99.90
8862;DHT22;4799;50.996;4.754;2023-06-22T09:22:05;21.90;99.90
8862;DHT22;4799;50.996;4.754;2023-06-22T09:24:32;21.80;99.90
8862;DHT22;4799;50.996;4.754;2023-06-22T09:26:58;21.70;99.90
8862;DHT22;4799;50.996;4.754;2023-06-22T09:29:24;21.80;99.90
8862;DHT22;4799;50.996;4.754;2023-06-22T09:31:50;21.80;99.90
8862;DHT22;4799;50.996;4.754;2023-06-22T09:34:16;21.80;99.90
8862;DHT22;4799;50.996;4.754;2023-06-22T09:36:46;21.70;99.90
8862;DHT22;4799;50.996;4.754;2023-06-22T09:39:11;21.70;99.90
8862;DHT22;4799;50.996;4.754;2023-06-22T09:41:37;21.60;99.90
8862;DHT22;4799;50.996;4.754;2023-06-22T09:44:03;21.50;99.90
8862;DHT22;4799;50.996;4.754;2023-06-22T09:46:29;21.30;99.90
8862;DHT22;4799;50.996;4.754;2023-06-22T09:48:54;21.00;99.90
8862;DHT22;4799;50.996;4.754;2023-06-22T09:51:20;20.90;99.90
8862;DHT22;4799;50.996;4.754;2023-06-22T09:53:47;20.80;99.90
8862;DHT22;4799;50.996;4.754;2023-06-22T09:56:13;20.70;99.90
8862;DHT22;4799;50.996;4.754;2023-06-22T09:58:44;20.60;99.90
8862;DHT22;4799;50.996;4.754;2023-06-22T10:01:10;20.60;99.90
8862;DHT22;4799;50.996;4.754;2023-06-22T10:03:36;20.50;99.90
8862;DHT22;4799;50.996;4.754;2023-06-22T10:06:02;20.50;99.90
8862;DHT22;4799;50.996;4.754;2023-06-22T10:08:28;20.40;99.90
8862;DHT22;4799;50.996;4.754;2023-06-22T10:10:54;20.20;99.90
8862;DHT22;4799;50.996;4.754;2023-06-22T10:13:20;20.10;99.90
8862;DHT22;4799;50.996;4.754;2023-06-22T10:15:46;19.90;99.90
8862;DHT22;4799;50.996;4.754;2023-06-22T10:18:20;19.60;99.90
8862;DHT22;4799;50.996;4.754;2023-06-22T10:20:48;19.00;99.90
8862;DHT22;4799;50.996;4.754;2023-06-22T10:23:15;18.80;99.90
8862;DHT22;4799;50.996;4.754;2023-06-22T10:25:41;18.60;99.90
8862;DHT22;4799;50.996;4.754;2023-06-22T10:28:07;18.60;99.90
8862;DHT22;4799;50.996;4.754;2023-06-22T10:30:32;18.70;99.90
8862;DHT22;4799;50.996;4.754;2023-06-22T10:32:58;18.60;99.90
8862;DHT22;4799;50.996;4.754;2023-06-22T10:35:24;18.70;99.90
8862;DHT22;4799;50.996;4.754;2023-06-22T10:37:49;18.80;99.90
8862;DHT22;4799;50.996;4.754;2023-06-22T10:40:17;18.70;99.90
8862;DHT22;4799;50.996;4.754;2023-06-22T10:42:44;18.70;99.90
8862;DHT22;4799;50.996;4.754;2023-06-22T10:45:10;18.50;99.90
8862;DHT22;4799;50.996;4.754;2023-06-22T10:47:36;18.40;99.90
8862;DHT22;4799;50.996;4.754;2023-06-22T10:50:02;18.40;99.90
8862;DHT22;4799;50.996;4.754;2023-06-22T10:52:28;18.30;99.90
8862;DHT22;4799;50.996;4.754;2023-06-22T10:54:54;18.30;99.90
8862;DHT22;4799;50.996;4.754;2023-06-22T10:57:20;18.30;99.90
8862;DHT22;4799;50.996;4.754;2023-06-22T10:59:46;18.30;99.90
8862;DHT22;4799;50.996;4.754;2023-06-22T11:02:12;18.30;99.90
8862;DHT22;4799;50.996;4.754;2023-06-22T11:04:38;18.40;99.90
8862;DHT22;4799;50.996;4.754;2023-06-22T11:07:04;18.50;99.90
8862;DHT22;4799;50.996;4.754;2023-06-22T11:09:30;18.50;99.90
8862;DHT22;4799;50.996;4.754;2023-06-22T11:11:56;18.60;99.90
8862;DHT22;4799;50.996;4.754;2023-06-22T11:14:21;18.70;99.90
8862;DHT22;4799;50.996;4.754;2023-06-22T11:16:47;18.70;99.90
8862;DHT22;4799;50.996;4.754;2023-06-22T11:19:13;18.70;99.90
8862;DHT22;4799;50.996;4.754;2023-06-22T11:21:39;18.70;99.90
8862;DHT22;4799;50.996;4.754;2023-06-22T11:24:08;18.80;99.90
8862;DHT22;4799;50.996;4.754;2023-06-22T11:26:34;18.80;99.90
8862;DHT22;4799;50.996;4.754;2023-06-22T11:29:00;18.80;99.90
8862;DHT22;4799;50.996;4.754;2023-06-22T11:31:26;18.80;99.90
8862;DHT22;4799;50.996;4.754;2023-06-22T11:33:52;18.90;99.90
8862;DHT22;4799;50.996;4.754;2023-06-22T11:36:18;19.00;99.90
8862;DHT22;4799;50.996;4.754;2023-06-22T11:38:44;19.00;99.90
8862;DHT22;4799;50.996;4.754;2023-06-22T11:41:10;19.10;99.90
8862;DHT22;4799;50.996;4.754;2023-06-22T11:43:36;19.20;99.90
8862;DHT22;4799;50.996;4.754;2023-06-22T11:46:03;19.30;99.90
8862;DHT22;4799;50.996;4.754;2023-06-22T11:48:29;19.30;99.90
8862;DHT22;4799;50.996;4.754;2023-06-22T11:50:55;19.20;99.90
8862;DHT22;4799;50.996;4.754;2023-06-22T11:53:21;19.10;99.90
8862;DHT22;4799;50.996;4.754;2023-06-22T11:55:47;19.10;99.90
8862;DHT22;4799;50.996;4.754;2023-06-22T11:58:14;19.10;99.90
8862;DHT22;4799;50.996;4.754;2023-06-22T12:00:40;19.00;99.90
8862;DHT22;4799;50.996;4.754;2023-06-22T12:03:07;19.00;99.90
8862;DHT22;4799;50.996;4.754;2023-06-22T12:05:33;18.90;99.90
8862;DHT22;4799;50.996;4.754;2023-06-22T12:07:59;18.90;99.90
8862;DHT22;4799;50.996;4.754;2023-06-22T12:10:25;18.90;99.90
8862;DHT22;4799;50.996;4.754;2023-06-22T12:12:54;18.80;99.90
8862;DHT22;4799;50.996;4.754;2023-06-22T12:15:19;18.80;99.90
8862;DHT22;4799;50.996;4.754;2023-06-22T12:17:45;18.80;99.90
8862;DHT22;4799;50.996;4.754;2023-06-22T12:20:12;18.80;99.90
8862;DHT22;4799;50.996;4.754;2023-06-22T12:22:37;18.80;99.90
8862;DHT22;4799;50.996;4.754;2023-06-22T12:25:03;18.80;99.90
8862;DHT22;4799;50.996;4.754;2023-06-22T12:27:29;18.80;99.90
8862;DHT22;4799;50.996;4.754;2023-06-22T12:29:58;18.80;99.90
8862;DHT22;4799;50.996;4.754;2023-06-22T12:32:23;18.70;99.90
8862;DHT22;4799;50.996;4.754;2023-06-22T12:34:50;18.60;99.90
8862;DHT22;4799;50.996;4.754;2023-06-22T12:37:15;18.70;99.90
8862;DHT22;4799;50.996;4.754;2023-06-22T12:39:41;18.60;99.90
8862;DHT22;4799;50.996;4.754;2023-06-22T12:42:07;18.60;99.90
8862;DHT22;4799;50.996;4.754;2023-06-22T12:44:43;18.50;99.90
8862;DHT22;4799;50.996;4.754;2023-06-22T12:47:09;18.50;99.90
8862;DHT22;4799;50.996;4.754;2023-06-22T12:49:35;18.50;99.90
8862;DHT22;4799;50.996;4.754;2023-06-22T12:52:01;18.50;99.90
8862;DHT22;4799;50.996;4.754;2023-06-22T12:54:27;18.50;99.90
8862;DHT22;4799;50.996;4.754;2023-06-22T12:56:55;18.50;99.90
8862;DHT22;4799;50.996;4.754;2023-06-22T12:59:21;18.50;99.90
8862;DHT22;4799;50.996;4.754;2023-06-22T13:01:46;18.40;99.90
8862;DHT22;4799;50.996;4.754;2023-06-22T13:04:12;18.40;99.90
8862;DHT22;4799;50.996;4.754;2023-06-22T13:06:43;18.40;99.90
8862;DHT22;4799;50.996;4.754;2023-06-22T13:09:10;18.40;99.90
8862;DHT22;4799;50.996;4.754;2023-06-22T13:11:36;18.40;99.90
8862;DHT22;4799;50.996;4.754;2023-06-22T13:14:01;18.40;99.90
8862;DHT22;4799;50.996;4.754;2023-06-22T13:16:27;18.30;99.90
8862;DHT22;4799;50.996;4.754;2023-06-22T13:18:53;18.40;99.90
8862;DHT22;4799;50.996;4.754;2023-06-22T13:21:18;18.40;99.90
8862;DHT22;4799;50.996;4.754;2023-06-22T13:23:44;18.40;99.90
8862;DHT22;4799;50.996;4.754;2023-06-22T13:26:10;18.40;99.90
8862;DHT22;4799;50.996;4.754;2023-06-22T13:28:36;18.40;99.90
8862;DHT22;4799;50.996;4.754;2023-06-22T13:31:01;18.50;99.90
8862;DHT22;4799;50.996;4.754;2023-06-22T13:33:27;18.50;99.90
8862;DHT22;4799;50.996;4.754;2023-06-22T13:35:53;18.50;99.90
8862;DHT22;4799;50.996;4.754;2023-06-22T13:38:19;18.50;99.90
8862;DHT22;4799;50.996;4.754;2023-06-22T13:40:44;18.50;99.90
8862;DHT22;4799;50.996;4.754;2023-06-22T13:43:10;18.50;99.90
8862;DHT22;4799;50.996;4.754;2023-06-22T13:45:36;18.40;99.90
8862;DHT22;4799;50.996;4.754;2023-06-22T13:48:01;18.40;99.90
8862;DHT22;4799;50.996;4.754;2023-06-22T13:50:27;18.40;99.90
8862;DHT22;4799;50.996;4.754;2023-06-22T13:52:54;18.40;99.90
8862;DHT22;4799;50.996;4.754;2023-06-22T13:55:20;18.40;99.90
8862;DHT22;4799;50.996;4.754;2023-06-22T13:57:46;18.40;99.90
8862;DHT22;4799;50.996;4.754;2023-06-22T14:00:12;18.30;99.90
8862;DHT22;4799;50.996;4.754;2023-06-22T14:02:38;18.30;99.90
8862;DHT22;4799;50.996;4.754;2023-06-22T14:05:05;18.30;99.90
8862;DHT22;4799;50.996;4.754;2023-06-22T14:07:31;18.30;99.90
8862;DHT22;4799;50.996;4.754;2023-06-22T14:09:57;18.40;99.90
8862;DHT22;4799;50.996;4.754;2023-06-22T14:12:24;18.30;99.90
8862;DHT22;4799;50.996;4.754;2023-06-22T14:14:49;18.30;99.90
8862;DHT22;4799;50.996;4.754;2023-06-22T14:17:15;18.30;99.90
8862;DHT22;4799;50.996;4.754;2023-06-22T14:19:41;18.30;99.90
8862;DHT22;4799;50.996;4.754;2023-06-22T14:22:07;18.30;99.90
8862;DHT22;4799;50.996;4.754;2023-06-22T14:24:32;18.30;99.90
8862;DHT22;4799;50.996;4.754;2023-06-22T14:26:58;18.40;99.90
8862;DHT22;4799;50.996;4.754;2023-06-22T14:29:25;18.40;99.90
8862;DHT22;4799;50.996;4.754;2023-06-22T14:31:51;18.40;99.90
8862;DHT22;4799;50.996;4.754;2023-06-22T14:34:17;18.40;99.90
8862;DHT22;4799;50.996;4.754;2023-06-22T14:36:42;18.30;99.90
8862;DHT22;4799;50.996;4.754;2023-06-22T14:39:09;18.30;99.90
8862;DHT22;4799;50.996;4.754;2023-06-22T14:41:35;18.30;99.90
8862;DHT22;4799;50.996;4.754;2023-06-22T14:44:00;18.30;99.90
8862;DHT22;4799;50.996;4.754;2023-06-22T14:46:27;18.30;99.90
8862;DHT22;4799;50.996;4.754;2023-06-22T14:48:52;18.30;99.90
8862;DHT22;4799;50.996;4.754;2023-06-22T14:51:18;18.30;99.90
8862;DHT22;4799;50.996;4.754;2023-06-22T14:53:45;18.30;99.90
8862;DHT22;4799;50.996;4.754;2023-06-22T14:56:11;18.40;99.90
8862;DHT22;4799;50.996;4.754;2023-06-22T14:58:38;18.40;99.90
8862;DHT22;4799;50.996;4.754;2023-06-22T15:01:05;18.40;99.90
8862;DHT22;4799;50.996;4.754;2023-06-22T15:03:34;18.40;99.90
8862;DHT22;4799;50.996;4.754;2023-06-22T15:06:01;18.40;99.90
8862;DHT22;4799;50.996;4.754;2023-06-22T15:08:27;18.40;99.90
8862;DHT22;4799;50.996;4.754;2023-06-22T15:10:53;18.40;99.90
8862;DHT22;4799;50.996;4.754;2023-06-22T15:13:19;18.50;99.90
8862;DHT22;4799;50.996;4.754;2023-06-22T15:15:49;18.40;99.90
8862;DHT22;4799;50.996;4.754;2023-06-22T15:18:15;18.50;99.90
8862;DHT22;4799;50.996;4.754;2023-06-22T15:20:42;18.50;99.90
8862;DHT22;4799;50.996;4.754;2023-06-22T15:23:10;18.50;99.90
8862;DHT22;4799;50.996;4.754;2023-06-22T15:25:35;18.50;99.90
8862;DHT22;4799;50.996;4.754;2023-06-22T15:28:01;18.60;99.90
8862;DHT22;4799;50.996;4.754;2023-06-22T15:30:28;18.60;99.90
8862;DHT22;4799;50.996;4.754;2023-06-22T15:32:54;18.60;99.90
8862;DHT22;4799;50.996;4.754;2023-06-22T15:35:21;18.60;99.90
8862;DHT22;4799;50.996;4.754;2023-06-22T15:37:47;18.70;99.90
8862;DHT22;4799;50.996;4.754;2023-06-22T15:40:12;18.70;99.90
8862;DHT22;4799;50.996;4.754;2023-06-22T15:42:38;18.70;99.90
8862;DHT22;4799;50.996;4.754;2023-06-22T15:45:05;18.80;99.90
8862;DHT22;4799;50.996;4.754;2023-06-22T15:47:31;18.80;99.90
8862;DHT22;4799;50.996;4.754;2023-06-22T15:49:56;18.80;99.90
8862;DHT22;4799;50.996;4.754;2023-06-22T15:52:22;18.80;99.90
8862;DHT22;4799;50.996;4.754;2023-06-22T15:54:48;18.80;99.90
8862;DHT22;4799;50.996;4.754;2023-06-22T15:57:19;18.80;99.90
8862;DHT22;4799;50.996;4.754;2023-06-22T15:59:45;18.80;99.90
8862;DHT22;4799;50.996;4.754;2023-06-22T16:02:11;18.80;99.90
8862;DHT22;4799;50.996;4.754;2023-06-22T16:04:36;18.80;99.90
8862;DHT22;4799;50.996;4.754;2023-06-22T16:07:02;18.80;99.90
8862;DHT22;4799;50.996;4.754;2023-06-22T16:09:28;18.80;99.90
8862;DHT22;4799;50.996;4.754;2023-06-22T16:11:55;18.80;99.90
8862;DHT22;4799;50.996;4.754;2023-06-22T16:14:21;18.80;99.90
8862;DHT22;4799;50.996;4.754;2023-06-22T16:16:47;18.90;99.90